Terminal Aerodrome Forecast
Issued by NWS

Home | Current Version | Previous Version | Text Only | Print | Product List | Glossary On
Versions: 1 2 3 4 5 6 7 8 9 10 11 12 13 14 15 16
000
FTUS44 KLIX 300522
TAFMCB
TAF
KMCB 300522Z 3006/3106 20005KT P6SM SKC
     FM300900 VRB03KT 2SM BR FEW030
      TEMPO 3009/3013 1/2SM FG BKN009
     FM301330 27005KT P6SM BKN019
     FM301900 27011KT P6SM VCTS BKN020CB BKN250
     FM310100 VRB06KT P6SM BKN035 BKN250=

USA.gov is the U.S. government's official web portal to all federal, state and local government web resources and services.